sensor_id;sensor_type;location;lat;lon;timestamp;P1;durP1;ratioP1;P2;durP2;ratioP2
17741;SDS011;8993;51.822;-2.268;2023-01-15T00:01:31;7.96;;;0.70;;
17741;SDS011;8993;51.822;-2.268;2023-01-15T00:06:35;6.17;;;0.64;;
17741;SDS011;8993;51.822;-2.268;2023-01-15T00:11:39;5.16;;;0.55;;
17741;SDS011;8993;51.822;-2.268;2023-01-15T00:16:44;5.55;;;0.70;;
17741;SDS011;8993;51.822;-2.268;2023-01-15T00:21:49;3.76;;;0.50;;
17741;SDS011;8993;51.822;-2.268;2023-01-15T00:26:53;5.26;;;0.52;;
17741;SDS011;8993;51.822;-2.268;2023-01-15T00:31:59;4.68;;;0.66;;
17741;SDS011;8993;51.822;-2.268;2023-01-15T00:37:03;3.46;;;0.51;;
17741;SDS011;8993;51.822;-2.268;2023-01-15T00:42:07;5.94;;;0.67;;
17741;SDS011;8993;51.822;-2.268;2023-01-15T00:47:11;7.00;;;0.67;;
17741;SDS011;8993;51.822;-2.268;2023-01-15T00:52:15;8.66;;;0.78;;
17741;SDS011;8993;51.822;-2.268;2023-01-15T00:57:20;5.95;;;0.68;;
17741;SDS011;8993;51.822;-2.268;2023-01-15T01:02:25;10.00;;;0.93;;
17741;SDS011;8993;51.822;-2.268;2023-01-15T01:07:28;9.82;;;0.85;;
17741;SDS011;8993;51.822;-2.268;2023-01-15T01:12:33;7.87;;;0.89;;
17741;SDS011;8993;51.822;-2.268;2023-01-15T01:22:43;8.35;;;0.94;;
17741;SDS011;8993;51.822;-2.268;2023-01-15T01:27:48;9.72;;;0.99;;
17741;SDS011;8993;51.822;-2.268;2023-01-15T01:32:52;11.36;;;1.13;;
17741;SDS011;8993;51.822;-2.268;2023-01-15T01:37:56;11.19;;;1.25;;
17741;SDS011;8993;51.822;-2.268;2023-01-15T01:43:01;13.70;;;1.48;;
17741;SDS011;8993;51.822;-2.268;2023-01-15T01:48:05;11.77;;;1.32;;
17741;SDS011;8993;51.822;-2.268;2023-01-15T01:53:10;12.75;;;1.22;;
17741;SDS011;8993;51.822;-2.268;2023-01-15T01:58:13;12.64;;;1.37;;
17741;SDS011;8993;51.822;-2.268;2023-01-15T02:03:18;11.14;;;1.16;;
17741;SDS011;8993;51.822;-2.268;2023-01-15T02:08:22;12.35;;;1.21;;
17741;SDS011;8993;51.822;-2.268;2023-01-15T02:13:29;13.85;;;1.32;;
17741;SDS011;8993;51.822;-2.268;2023-01-15T02:18:32;13.26;;;1.11;;
17741;SDS011;8993;51.822;-2.268;2023-01-15T02:23:44;15.26;;;1.48;;
17741;SDS011;8993;51.822;-2.268;2023-01-15T02:28:39;16.33;;;1.39;;
17741;SDS011;8993;51.822;-2.268;2023-01-15T02:33:44;16.27;;;1.52;;
17741;SDS011;8993;51.822;-2.268;2023-01-15T02:38:48;13.22;;;1.62;;
17741;SDS011;8993;51.822;-2.268;2023-01-15T02:43:53;16.99;;;1.70;;
17741;SDS011;8993;51.822;-2.268;2023-01-15T02:48:56;14.20;;;1.47;;
17741;SDS011;8993;51.822;-2.268;2023-01-15T02:54:00;11.68;;;1.16;;
17741;SDS011;8993;51.822;-2.268;2023-01-15T02:59:06;11.11;;;1.14;;
17741;SDS011;8993;51.822;-2.268;2023-01-15T03:04:10;13.37;;;1.23;;
17741;SDS011;8993;51.822;-2.268;2023-01-15T03:09:14;14.82;;;1.18;;
17741;SDS011;8993;51.822;-2.268;2023-01-15T03:14:18;15.93;;;1.32;;
17741;SDS011;8993;51.822;-2.268;2023-01-15T03:19:23;14.47;;;1.87;;
17741;SDS011;8993;51.822;-2.268;2023-01-15T03:24:29;14.33;;;1.41;;
17741;SDS011;8993;51.822;-2.268;2023-01-15T03:29:32;16.69;;;1.59;;
17741;SDS011;8993;51.822;-2.268;2023-01-15T03:34:36;14.19;;;1.22;;
17741;SDS011;8993;51.822;-2.268;2023-01-15T03:39:40;10.44;;;1.03;;
17741;SDS011;8993;51.822;-2.268;2023-01-15T03:44:45;12.51;;;1.10;;
17741;SDS011;8993;51.822;-2.268;2023-01-15T03:49:50;13.01;;;1.10;;
17741;SDS011;8993;51.822;-2.268;2023-01-15T03:54:56;12.14;;;1.12;;
17741;SDS011;8993;51.822;-2.268;2023-01-15T03:59:58;12.47;;;1.26;;
17741;SDS011;8993;51.822;-2.268;2023-01-15T04:05:02;13.02;;;1.41;;
17741;SDS011;8993;51.822;-2.268;2023-01-15T04:10:07;14.42;;;1.38;;
17741;SDS011;8993;51.822;-2.268;2023-01-15T04:15:11;12.36;;;1.36;;
17741;SDS011;8993;51.822;-2.268;2023-01-15T04:20:16;13.03;;;1.16;;
17741;SDS011;8993;51.822;-2.268;2023-01-15T04:30:26;14.97;;;1.36;;
17741;SDS011;8993;51.822;-2.268;2023-01-15T04:35:30;17.48;;;1.81;;
17741;SDS011;8993;51.822;-2.268;2023-01-15T04:40:35;17.15;;;1.54;;
17741;SDS011;8993;51.822;-2.268;2023-01-15T04:45:39;14.13;;;1.31;;
17741;SDS011;8993;51.822;-2.268;2023-01-15T04:50:43;13.94;;;1.35;;
17741;SDS011;8993;51.822;-2.268;2023-01-15T04:55:47;10.41;;;1.13;;
17741;SDS011;8993;51.822;-2.268;2023-01-15T05:00:51;12.32;;;0.94;;
17741;SDS011;8993;51.822;-2.268;2023-01-15T05:06:00;10.81;;;0.92;;
17741;SDS011;8993;51.822;-2.268;2023-01-15T05:11:00;12.63;;;0.90;;
17741;SDS011;8993;51.822;-2.268;2023-01-15T05:16:09;11.58;;;0.97;;
17741;SDS011;8993;51.822;-2.268;2023-01-15T05:21:15;16.03;;;1.58;;
17741;SDS011;8993;51.822;-2.268;2023-01-15T05:26:13;17.38;;;1.58;;
17741;SDS011;8993;51.822;-2.268;2023-01-15T05:31:17;16.26;;;1.31;;
17741;SDS011;8993;51.822;-2.268;2023-01-15T05:36:23;17.82;;;1.46;;
17741;SDS011;8993;51.822;-2.268;2023-01-15T05:41:27;18.83;;;1.84;;
17741;SDS011;8993;51.822;-2.268;2023-01-15T05:46:31;19.64;;;1.66;;
17741;SDS011;8993;51.822;-2.268;2023-01-15T05:51:35;19.28;;;1.55;;
17741;SDS011;8993;51.822;-2.268;2023-01-15T05:56:40;14.94;;;1.62;;
17741;SDS011;8993;51.822;-2.268;2023-01-15T06:01:45;14.67;;;1.54;;
17741;SDS011;8993;51.822;-2.268;2023-01-15T06:06:50;14.37;;;1.19;;
17741;SDS011;8993;51.822;-2.268;2023-01-15T06:11:54;14.95;;;1.40;;
17741;SDS011;8993;51.822;-2.268;2023-01-15T06:16:58;15.65;;;1.82;;
17741;SDS011;8993;51.822;-2.268;2023-01-15T06:22:03;15.66;;;1.54;;
17741;SDS011;8993;51.822;-2.268;2023-01-15T06:27:07;14.34;;;1.48;;
17741;SDS011;8993;51.822;-2.268;2023-01-15T06:32:11;16.85;;;1.41;;
17741;SDS011;8993;51.822;-2.268;2023-01-15T06:37:16;16.67;;;1.53;;
17741;SDS011;8993;51.822;-2.268;2023-01-15T06:42:20;18.96;;;1.87;;
17741;SDS011;8993;51.822;-2.268;2023-01-15T06:47:24;19.44;;;1.66;;
17741;SDS011;8993;51.822;-2.268;2023-01-15T06:52:28;17.16;;;1.67;;
17741;SDS011;8993;51.822;-2.268;2023-01-15T06:57:33;20.23;;;1.97;;
17741;SDS011;8993;51.822;-2.268;2023-01-15T07:02:37;19.49;;;1.90;;
17741;SDS011;8993;51.822;-2.268;2023-01-15T07:07:41;22.14;;;2.00;;
17741;SDS011;8993;51.822;-2.268;2023-01-15T07:12:45;18.91;;;1.93;;
17741;SDS011;8993;51.822;-2.268;2023-01-15T07:17:53;20.67;;;1.82;;
17741;SDS011;8993;51.822;-2.268;2023-01-15T07:22:54;18.34;;;1.73;;
17741;SDS011;8993;51.822;-2.268;2023-01-15T07:27:58;14.96;;;1.70;;
17741;SDS011;8993;51.822;-2.268;2023-01-15T07:33:02;16.83;;;1.56;;
17741;SDS011;8993;51.822;-2.268;2023-01-15T07:38:06;13.25;;;1.39;;
17741;SDS011;8993;51.822;-2.268;2023-01-15T07:43:11;15.46;;;1.61;;
17741;SDS011;8993;51.822;-2.268;2023-01-15T07:48:15;16.39;;;1.48;;
17741;SDS011;8993;51.822;-2.268;2023-01-15T07:53:20;16.34;;;1.39;;
17741;SDS011;8993;51.822;-2.268;2023-01-15T07:58:24;18.08;;;1.39;;
17741;SDS011;8993;51.822;-2.268;2023-01-15T08:03:28;18.83;;;1.57;;
17741;SDS011;8993;51.822;-2.268;2023-01-15T08:08:32;15.14;;;1.65;;
17741;SDS011;8993;51.822;-2.268;2023-01-15T08:13:37;15.03;;;1.49;;
17741;SDS011;8993;51.822;-2.268;2023-01-15T08:18:41;16.71;;;1.39;;
17741;SDS011;8993;51.822;-2.268;2023-01-15T08:23:46;15.08;;;1.29;;
17741;SDS011;8993;51.822;-2.268;2023-01-15T08:28:50;12.90;;;1.32;;
17741;SDS011;8993;51.822;-2.268;2023-01-15T08:33:54;15.73;;;1.53;;
17741;SDS011;8993;51.822;-2.268;2023-01-15T08:38:58;16.56;;;1.73;;
17741;SDS011;8993;51.822;-2.268;2023-01-15T08:44:03;18.48;;;1.76;;
17741;SDS011;8993;51.822;-2.268;2023-01-15T08:49:07;17.98;;;1.69;;
17741;SDS011;8993;51.822;-2.268;2023-01-15T08:54:11;19.10;;;1.71;;
17741;SDS011;8993;51.822;-2.268;2023-01-15T08:59:19;16.44;;;1.91;;
17741;SDS011;8993;51.822;-2.268;2023-01-15T09:04:24;21.12;;;1.80;;
17741;SDS011;8993;51.822;-2.268;2023-01-15T09:09:28;15.62;;;1.39;;
17741;SDS011;8993;51.822;-2.268;2023-01-15T09:14:32;16.03;;;1.63;;
17741;SDS011;8993;51.822;-2.268;2023-01-15T09:19:37;13.11;;;1.63;;
17741;SDS011;8993;51.822;-2.268;2023-01-15T09:24:41;18.26;;;1.88;;
17741;SDS011;8993;51.822;-2.268;2023-01-15T09:29:46;18.18;;;1.90;;
17741;SDS011;8993;51.822;-2.268;2023-01-15T09:34:50;16.67;;;1.65;;
17741;SDS011;8993;51.822;-2.268;2023-01-15T09:39:54;17.92;;;1.91;;
17741;SDS011;8993;51.822;-2.268;2023-01-15T09:45:09;16.23;;;1.54;;
17741;SDS011;8993;51.822;-2.268;2023-01-15T09:50:08;19.14;;;1.61;;
17741;SDS011;8993;51.822;-2.268;2023-01-15T09:55:08;16.85;;;1.87;;
17741;SDS011;8993;51.822;-2.268;2023-01-15T10:00:12;16.94;;;1.69;;
17741;SDS011;8993;51.822;-2.268;2023-01-15T10:05:16;17.09;;;1.82;;
17741;SDS011;8993;51.822;-2.268;2023-01-15T10:10:21;18.88;;;1.79;;
17741;SDS011;8993;51.822;-2.268;2023-01-15T10:15:27;17.36;;;1.76;;
17741;SDS011;8993;51.822;-2.268;2023-01-15T10:20:35;16.27;;;1.81;;
17741;SDS011;8993;51.822;-2.268;2023-01-15T10:25:35;17.71;;;1.94;;
17741;SDS011;8993;51.822;-2.268;2023-01-15T10:30:38;17.46;;;1.89;;
17741;SDS011;8993;51.822;-2.268;2023-01-15T10:35:44;18.43;;;2.02;;
17741;SDS011;8993;51.822;-2.268;2023-01-15T10:41:06;19.18;;;2.26;;
17741;SDS011;8993;51.822;-2.268;2023-01-15T10:45:51;18.84;;;2.26;;
17741;SDS011;8993;51.822;-2.268;2023-01-15T10:50:55;18.06;;;2.02;;
17741;SDS011;8993;51.822;-2.268;2023-01-15T10:56:02;19.62;;;2.07;;
17741;SDS011;8993;51.822;-2.268;2023-01-15T11:01:07;18.30;;;2.02;;
17741;SDS011;8993;51.822;-2.268;2023-01-15T11:06:12;21.59;;;2.01;;
17741;SDS011;8993;51.822;-2.268;2023-01-15T11:11:16;17.26;;;2.10;;
17741;SDS011;8993;51.822;-2.268;2023-01-15T11:16:19;17.48;;;1.89;;
17741;SDS011;8993;51.822;-2.268;2023-01-15T11:21:22;15.39;;;1.54;;
17741;SDS011;8993;51.822;-2.268;2023-01-15T11:26:27;18.36;;;1.76;;
17741;SDS011;8993;51.822;-2.268;2023-01-15T11:31:35;17.15;;;1.82;;
17741;SDS011;8993;51.822;-2.268;2023-01-15T11:36:35;17.17;;;1.62;;
17741;SDS011;8993;51.822;-2.268;2023-01-15T11:41:40;16.34;;;1.66;;
17741;SDS011;8993;51.822;-2.268;2023-01-15T11:46:45;20.07;;;1.74;;
17741;SDS011;8993;51.822;-2.268;2023-01-15T11:51:48;14.10;;;1.76;;
17741;SDS011;8993;51.822;-2.268;2023-01-15T11:56:52;13.95;;;1.56;;
17741;SDS011;8993;51.822;-2.268;2023-01-15T12:01:58;15.37;;;1.70;;
17741;SDS011;8993;51.822;-2.268;2023-01-15T12:07:02;16.61;;;1.70;;
17741;SDS011;8993;51.822;-2.268;2023-01-15T12:12:08;20.93;;;2.22;;
17741;SDS011;8993;51.822;-2.268;2023-01-15T12:17:14;17.73;;;1.75;;
17741;SDS011;8993;51.822;-2.268;2023-01-15T12:22:19;18.80;;;1.97;;
17741;SDS011;8993;51.822;-2.268;2023-01-15T12:27:21;18.83;;;1.78;;
17741;SDS011;8993;51.822;-2.268;2023-01-15T12:32:23;17.12;;;1.80;;
17741;SDS011;8993;51.822;-2.268;2023-01-15T12:37:27;14.33;;;1.63;;
17741;SDS011;8993;51.822;-2.268;2023-01-15T12:42:31;16.44;;;1.58;;
17741;SDS011;8993;51.822;-2.268;2023-01-15T12:47:37;13.02;;;1.53;;
17741;SDS011;8993;51.822;-2.268;2023-01-15T12:52:39;14.82;;;1.61;;
17741;SDS011;8993;51.822;-2.268;2023-01-15T12:57:45;19.10;;;1.82;;
17741;SDS011;8993;51.822;-2.268;2023-01-15T13:02:53;14.50;;;1.52;;
17741;SDS011;8993;51.822;-2.268;2023-01-15T13:07:54;14.34;;;1.63;;
17741;SDS011;8993;51.822;-2.268;2023-01-15T13:13:06;12.81;;;1.39;;
17741;SDS011;8993;51.822;-2.268;2023-01-15T13:18:06;14.91;;;1.23;;
17741;SDS011;8993;51.822;-2.268;2023-01-15T13:23:15;16.32;;;1.55;;
17741;SDS011;8993;51.822;-2.268;2023-01-15T13:28:18;16.08;;;1.62;;
17741;SDS011;8993;51.822;-2.268;2023-01-15T13:33:21;14.18;;;1.77;;
17741;SDS011;8993;51.822;-2.268;2023-01-15T13:38:23;20.31;;;2.97;;
17741;SDS011;8993;51.822;-2.268;2023-01-15T13:43:29;16.36;;;2.02;;
17741;SDS011;8993;51.822;-2.268;2023-01-15T13:48:31;16.66;;;1.76;;
17741;SDS011;8993;51.822;-2.268;2023-01-15T13:53:35;13.46;;;1.68;;
17741;SDS011;8993;51.822;-2.268;2023-01-15T13:58:39;17.59;;;1.79;;
17741;SDS011;8993;51.822;-2.268;2023-01-15T14:03:52;14.33;;;1.55;;
17741;SDS011;8993;51.822;-2.268;2023-01-15T14:08:47;15.75;;;1.78;;
17741;SDS011;8993;51.822;-2.268;2023-01-15T14:13:56;14.85;;;1.95;;
17741;SDS011;8993;51.822;-2.268;2023-01-15T14:18:58;18.46;;;1.98;;
17741;SDS011;8993;51.822;-2.268;2023-01-15T14:24:04;15.33;;;2.01;;
17741;SDS011;8993;51.822;-2.268;2023-01-15T14:29:11;14.78;;;1.73;;
17741;SDS011;8993;51.822;-2.268;2023-01-15T14:34:13;16.81;;;1.63;;
17741;SDS011;8993;51.822;-2.268;2023-01-15T14:39:23;12.76;;;1.39;;
17741;SDS011;8993;51.822;-2.268;2023-01-15T14:44:19;12.09;;;1.45;;
17741;SDS011;8993;51.822;-2.268;2023-01-15T14:49:26;13.21;;;1.31;;
17741;SDS011;8993;51.822;-2.268;2023-01-15T14:54:27;15.31;;;1.51;;
17741;SDS011;8993;51.822;-2.268;2023-01-15T14:59:35;14.45;;;1.54;;
17741;SDS011;8993;51.822;-2.268;2023-01-15T15:04:37;12.37;;;1.28;;
17741;SDS011;8993;51.822;-2.268;2023-01-15T15:09:41;17.17;;;1.88;;
17741;SDS011;8993;51.822;-2.268;2023-01-15T15:14:45;16.00;;;1.63;;
17741;SDS011;8993;51.822;-2.268;2023-01-15T15:19:50;18.69;;;1.96;;
17741;SDS011;8993;51.822;-2.268;2023-01-15T15:24:55;19.60;;;1.87;;
17741;SDS011;8993;51.822;-2.268;2023-01-15T15:30:03;16.94;;;1.67;;
17741;SDS011;8993;51.822;-2.268;2023-01-15T15:35:03;15.50;;;1.71;;
17741;SDS011;8993;51.822;-2.268;2023-01-15T15:40:13;13.76;;;1.44;;
17741;SDS011;8993;51.822;-2.268;2023-01-15T15:45:15;14.46;;;1.42;;
17741;SDS011;8993;51.822;-2.268;2023-01-15T15:50:18;13.71;;;1.46;;
17741;SDS011;8993;51.822;-2.268;2023-01-15T15:55:21;14.40;;;1.91;;
17741;SDS011;8993;51.822;-2.268;2023-01-15T16:00:26;12.64;;;1.45;;
17741;SDS011;8993;51.822;-2.268;2023-01-15T16:05:29;11.01;;;1.55;;
17741;SDS011;8993;51.822;-2.268;2023-01-15T16:10:34;12.53;;;1.47;;
17741;SDS011;8993;51.822;-2.268;2023-01-15T16:15:40;10.50;;;1.25;;
17741;SDS011;8993;51.822;-2.268;2023-01-15T16:20:45;11.62;;;1.38;;
17741;SDS011;8993;51.822;-2.268;2023-01-15T16:26:05;12.12;;;1.45;;
17741;SDS011;8993;51.822;-2.268;2023-01-15T16:30:54;10.72;;;1.42;;
17741;SDS011;8993;51.822;-2.268;2023-01-15T16:36:00;12.75;;;1.30;;
17741;SDS011;8993;51.822;-2.268;2023-01-15T16:41:05;8.95;;;1.23;;
17741;SDS011;8993;51.822;-2.268;2023-01-15T16:46:14;8.00;;;1.07;;
17741;SDS011;8993;51.822;-2.268;2023-01-15T16:51:29;7.32;;;1.07;;
17741;SDS011;8993;51.822;-2.268;2023-01-15T16:56:26;6.55;;;1.05;;
17741;SDS011;8993;51.822;-2.268;2023-01-15T17:01:23;7.49;;;1.06;;
17741;SDS011;8993;51.822;-2.268;2023-01-15T17:06:28;8.94;;;1.18;;
17741;SDS011;8993;51.822;-2.268;2023-01-15T17:11:31;9.65;;;1.27;;
17741;SDS011;8993;51.822;-2.268;2023-01-15T17:16:35;9.89;;;1.69;;
17741;SDS011;8993;51.822;-2.268;2023-01-15T17:21:39;11.47;;;1.87;;
17741;SDS011;8993;51.822;-2.268;2023-01-15T17:26:44;8.33;;;1.52;;
17741;SDS011;8993;51.822;-2.268;2023-01-15T17:31:48;10.41;;;1.41;;
17741;SDS011;8993;51.822;-2.268;2023-01-15T17:36:53;9.32;;;1.19;;
17741;SDS011;8993;51.822;-2.268;2023-01-15T17:41:58;10.49;;;1.43;;
17741;SDS011;8993;51.822;-2.268;2023-01-15T17:47:01;11.51;;;1.30;;
17741;SDS011;8993;51.822;-2.268;2023-01-15T17:52:06;13.24;;;1.57;;
17741;SDS011;8993;51.822;-2.268;2023-01-15T17:57:10;14.69;;;1.74;;
17741;SDS011;8993;51.822;-2.268;2023-01-15T18:02:14;18.47;;;1.86;;
17741;SDS011;8993;51.822;-2.268;2023-01-15T18:07:19;19.02;;;1.97;;
17741;SDS011;8993;51.822;-2.268;2023-01-15T18:12:23;16.94;;;2.03;;
17741;SDS011;8993;51.822;-2.268;2023-01-15T18:17:28;17.27;;;2.34;;
17741;SDS011;8993;51.822;-2.268;2023-01-15T18:22:33;20.61;;;2.54;;
17741;SDS011;8993;51.822;-2.268;2023-01-15T18:27:38;22.10;;;2.54;;
17741;SDS011;8993;51.822;-2.268;2023-01-15T18:32:42;19.62;;;2.38;;
17741;SDS011;8993;51.822;-2.268;2023-01-15T18:37:46;21.15;;;2.71;;
17741;SDS011;8993;51.822;-2.268;2023-01-15T18:42:52;22.80;;;2.75;;
17741;SDS011;8993;51.822;-2.268;2023-01-15T18:47:55;25.29;;;3.08;;
17741;SDS011;8993;51.822;-2.268;2023-01-15T18:52:59;22.54;;;2.52;;
17741;SDS011;8993;51.822;-2.268;2023-01-15T18:58:16;25.19;;;2.84;;
17741;SDS011;8993;51.822;-2.268;2023-01-15T19:03:10;25.50;;;2.69;;
17741;SDS011;8993;51.822;-2.268;2023-01-15T19:08:14;23.17;;;2.35;;
17741;SDS011;8993;51.822;-2.268;2023-01-15T19:13:18;20.66;;;2.64;;
17741;SDS011;8993;51.822;-2.268;2023-01-15T19:18:23;20.15;;;2.33;;
17741;SDS011;8993;51.822;-2.268;2023-01-15T19:23:27;25.53;;;2.79;;
17741;SDS011;8993;51.822;-2.268;2023-01-15T19:28:31;29.14;;;3.60;;
17741;SDS011;8993;51.822;-2.268;2023-01-15T19:33:35;23.60;;;3.22;;
17741;SDS011;8993;51.822;-2.268;2023-01-15T19:38:39;29.55;;;2.98;;
17741;SDS011;8993;51.822;-2.268;2023-01-15T19:43:45;26.59;;;2.74;;
17741;SDS011;8993;51.822;-2.268;2023-01-15T19:48:48;21.95;;;2.87;;
17741;SDS011;8993;51.822;-2.268;2023-01-15T19:53:53;26.65;;;2.83;;
17741;SDS011;8993;51.822;-2.268;2023-01-15T19:58:58;23.59;;;2.83;;
17741;SDS011;8993;51.822;-2.268;2023-01-15T20:04:02;26.43;;;3.03;;
17741;SDS011;8993;51.822;-2.268;2023-01-15T20:09:06;25.94;;;3.19;;
17741;SDS011;8993;51.822;-2.268;2023-01-15T20:14:11;27.65;;;3.02;;
17741;SDS011;8993;51.822;-2.268;2023-01-15T20:19:15;27.52;;;3.32;;
17741;SDS011;8993;51.822;-2.268;2023-01-15T20:24:19;28.38;;;3.40;;
17741;SDS011;8993;51.822;-2.268;2023-01-15T20:29:24;29.49;;;3.37;;
17741;SDS011;8993;51.822;-2.268;2023-01-15T20:34:28;30.02;;;3.50;;
17741;SDS011;8993;51.822;-2.268;2023-01-15T20:39:32;24.73;;;3.58;;
17741;SDS011;8993;51.822;-2.268;2023-01-15T20:44:37;24.47;;;3.40;;
17741;SDS011;8993;51.822;-2.268;2023-01-15T20:49:41;18.69;;;2.90;;
17741;SDS011;8993;51.822;-2.268;2023-01-15T20:54:45;23.21;;;2.93;;
17741;SDS011;8993;51.822;-2.268;2023-01-15T20:59:49;22.58;;;3.32;;
17741;SDS011;8993;51.822;-2.268;2023-01-15T21:04:53;24.74;;;3.26;;
17741;SDS011;8993;51.822;-2.268;2023-01-15T21:09:58;22.37;;;3.37;;
17741;SDS011;8993;51.822;-2.268;2023-01-15T21:15:04;16.89;;;2.58;;
17741;SDS011;8993;51.822;-2.268;2023-01-15T21:20:25;24.83;;;4.41;;
17741;SDS011;8993;51.822;-2.268;2023-01-15T21:25:13;25.36;;;3.45;;
17741;SDS011;8993;51.822;-2.268;2023-01-15T21:30:16;23.49;;;5.08;;
17741;SDS011;8993;51.822;-2.268;2023-01-15T21:35:21;23.25;;;4.69;;
17741;SDS011;8993;51.822;-2.268;2023-01-15T21:40:25;18.49;;;2.98;;
17741;SDS011;8993;51.822;-2.268;2023-01-15T21:45:30;23.45;;;3.68;;
17741;SDS011;8993;51.822;-2.268;2023-01-15T21:50:34;19.60;;;3.57;;
17741;SDS011;8993;51.822;-2.268;2023-01-15T21:55:38;26.13;;;3.89;;
17741;SDS011;8993;51.822;-2.268;2023-01-15T22:00:43;16.57;;;3.57;;
17741;SDS011;8993;51.822;-2.268;2023-01-15T22:05:47;18.25;;;4.02;;
17741;SDS011;8993;51.822;-2.268;2023-01-15T22:10:51;16.30;;;3.49;;
17741;SDS011;8993;51.822;-2.268;2023-01-15T22:15:55;21.63;;;3.17;;
17741;SDS011;8993;51.822;-2.268;2023-01-15T22:21:01;24.38;;;3.04;;
17741;SDS011;8993;51.822;-2.268;2023-01-15T22:26:04;19.97;;;3.19;;
17741;SDS011;8993;51.822;-2.268;2023-01-15T22:31:08;17.06;;;2.45;;
17741;SDS011;8993;51.822;-2.268;2023-01-15T22:36:13;22.10;;;2.76;;
17741;SDS011;8993;51.822;-2.268;2023-01-15T22:41:17;17.52;;;2.59;;
17741;SDS011;8993;51.822;-2.268;2023-01-15T22:46:21;20.79;;;2.68;;
17741;SDS011;8993;51.822;-2.268;2023-01-15T22:51:25;20.78;;;2.61;;
17741;SDS011;8993;51.822;-2.268;2023-01-15T22:56:30;21.85;;;2.73;;
17741;SDS011;8993;51.822;-2.268;2023-01-15T23:01:34;13.18;;;2.18;;
17741;SDS011;8993;51.822;-2.268;2023-01-15T23:06:38;18.93;;;2.34;;
17741;SDS011;8993;51.822;-2.268;2023-01-15T23:11:43;21.64;;;2.59;;
17741;SDS011;8993;51.822;-2.268;2023-01-15T23:16:47;21.52;;;2.61;;
17741;SDS011;8993;51.822;-2.268;2023-01-15T23:21:51;16.85;;;2.63;;
17741;SDS011;8993;51.822;-2.268;2023-01-15T23:26:55;13.24;;;2.15;;
17741;SDS011;8993;51.822;-2.268;2023-01-15T23:32:00;14.84;;;2.31;;
17741;SDS011;8993;51.822;-2.268;2023-01-15T23:37:05;14.53;;;2.26;;
17741;SDS011;8993;51.822;-2.268;2023-01-15T23:42:09;22.46;;;2.93;;
17741;SDS011;8993;51.822;-2.268;2023-01-15T23:47:14;20.25;;;3.71;;
17741;SDS011;8993;51.822;-2.268;2023-01-15T23:52:18;13.64;;;2.98;;
17741;SDS011;8993;51.822;-2.268;2023-01-15T23:57:22;18.04;;;3.73;;
